Time;durP1;ratioP1;P1;durP2;ratioP2;P2;SDS_P1;SDS_P2;PMS_P1;PMS_P2;Temp;Humidity;BMP_temperature;BMP_pressure;BME280_temperature;BME280_humidity;BME280_pressure;Samples;Min_cycle;Max_cycle;Signal;HPM_P1;HPM_P2
2022/03/24 00:00:25;;;;;;;;;43.00;35.33;;;;;13.11;53.12;102416.63;5062207;28;44793;-85
2022/03/24 00:02:50;;;;;;;;;48.67;38.67;;;;;13.06;53.38;102418.69;5096228;27;45306;-85
2022/03/24 00:05:17;;;;;;;;;47.00;39.00;;;;;13.03;53.57;102419.69;5064215;28;45244;-84
2022/03/24 00:07:43;;;;;;;;;42.33;33.67;;;;;12.99;54.06;102418.09;5062724;28;45376;-85
2022/03/24 00:10:09;;;;;;;;;45.33;38.00;;;;;12.96;53.85;102414.72;5056738;28;44858;-85
2022/03/24 00:12:35;;;;;;;;;40.00;32.00;;;;;13.01;51.93;102410.03;5058247;28;45364;-85
2022/03/24 00:15:05;;;;;;;;;40.00;34.67;;;;;13.03;53.29;102411.69;5064745;28;45234;-84
2022/03/24 00:17:31;;;;;;;;;52.33;42.33;;;;;13.00;53.79;102409.16;5063542;28;44796;-84
2022/03/24 00:19:58;;;;;;;;;48.00;38.33;;;;;13.01;54.92;102410.03;5059191;28;44774;-83
2022/03/24 00:22:24;;;;;;;;;48.67;38.67;;;;;12.99;53.89;102414.56;5093131;27;45240;-84
2022/03/24 00:24:49;;;;;;;;;44.67;37.67;;;;;12.93;54.36;102418.41;5059830;28;45556;-84
2022/03/24 00:27:15;;;;;;;;;51.33;39.00;;;;;12.88;54.51;102409.78;5058377;28;45264;-84
2022/03/24 00:29:42;;;;;;;;;43.33;36.00;;;;;12.84;55.25;102411.72;5061562;28;44600;-84
2022/03/24 00:32:08;;;;;;;;;43.67;36.33;;;;;12.81;55.41;102414.56;5050794;28;45242;-83
2022/03/24 00:34:34;;;;;;;;;47.33;38.67;;;;;12.81;55.18;102409.22;5037037;28;45494;-84
2022/03/24 00:36:59;;;;;;;;;49.00;39.00;;;;;12.79;55.18;102411.09;5036157;28;45231;-85
2022/03/24 00:39:25;;;;;;;;;54.33;41.00;;;;;12.77;56.73;102407.66;5037985;28;44864;-84
2022/03/24 00:41:50;;;;;;;;;47.67;39.00;;;;;12.73;52.39;102406.06;5036882;28;45513;-85
2022/03/24 00:44:16;;;;;;;;;53.00;41.33;;;;;12.78;54.10;102411.19;5036248;28;45551;-84
2022/03/24 00:46:41;;;;;;;;;52.33;41.33;;;;;12.78;54.67;102403.19;5035970;28;45498;-83
2022/03/24 00:49:06;;;;;;;;;52.33;41.67;;;;;12.75;55.91;102406.84;5035662;28;45311;-82
2022/03/24 00:51:32;;;;;;;;;49.00;40.00;;;;;12.71;54.41;102397.25;5041243;28;45446;-83
2022/03/24 00:53:57;;;;;;;;;51.00;42.00;;;;;12.68;57.98;102388.56;5044728;28;46695;-84
2022/03/24 00:56:23;;;;;;;;;50.67;42.33;;;;;12.66;58.37;102395.75;5042366;28;45256;-81
2022/03/24 00:58:49;;;;;;;;;47.33;39.00;;;;;12.60;54.04;102396.94;5041496;28;44816;-82
2022/03/24 01:01:14;;;;;;;;;37.00;32.00;;;;;12.59;54.50;102393.41;5059626;28;45331;-83
2022/03/24 01:03:41;;;;;;;;;46.67;37.67;;;;;12.58;58.08;102390.81;5062425;28;46961;-84
2022/03/24 01:06:07;;;;;;;;;49.33;41.33;;;;;12.54;58.22;102397.25;5067802;28;45356;-83
2022/03/24 01:08:34;;;;;;;;;53.00;42.33;;;;;12.48;59.17;102390.41;5066120;28;44781;-84
2022/03/24 01:11:01;;;;;;;;;46.00;37.67;;;;;12.43;60.56;102387.09;5061473;28;45386;-83
2022/03/24 01:13:28;;;;;;;;;46.33;38.33;;;;;12.34;64.93;102387.53;5059844;28;47571;-83
2022/03/24 01:15:54;;;;;;;;;49.67;38.67;;;;;12.30;65.39;102385.97;5064790;28;44743;-82
2022/03/24 01:18:19;;;;;;;;;50.33;39.67;;;;;12.25;61.92;102388.84;5064267;28;44806;-82
2022/03/24 01:20:46;;;;;;;;;47.00;32.33;;;;;12.23;61.70;102379.19;5064681;28;44798;-83
2022/03/24 01:23:12;;;;;;;;;47.33;37.00;;;;;12.21;60.01;102387.25;5065539;28;45073;-82
2022/03/24 01:25:41;;;;;;;;;40.33;31.67;;;;;12.14;64.70;102375.19;5063176;28;45228;-82
2022/03/24 01:28:06;;;;;;;;;44.33;35.67;;;;;12.14;63.67;102371.66;5068549;28;44744;-82
2022/03/24 01:30:31;;;;;;;;;46.33;37.67;;;;;12.11;61.96;102379.78;5067428;28;45552;-82
2022/03/24 01:32:57;;;;;;;;;47.67;38.00;;;;;12.07;63.29;102387.91;5063739;28;45327;-81
2022/03/24 01:35:23;;;;;;;;;48.00;40.00;;;;;12.00;61.83;102380.28;5062169;28;45399;-82
2022/03/24 01:37:48;;;;;;;;;54.67;38.33;;;;;11.96;60.09;102379.56;5062623;28;45383;-83
2022/03/24 01:40:14;;;;;;;;;49.67;41.67;;;;;11.92;57.55;102380.63;5062429;28;44857;-83
2022/03/24 01:42:41;;;;;;;;;50.00;38.00;;;;;11.90;59.40;102382.50;5058182;28;46732;-82
2022/03/24 01:45:08;;;;;;;;;45.00;37.33;;;;;11.87;62.28;102374.66;5061713;28;45283;-82
2022/03/24 01:47:35;;;;;;;;;48.33;41.00;;;;;11.87;62.30;102369.31;5058159;28;44818;-83
2022/03/24 01:50:01;;;;;;;;;48.00;37.33;;;;;11.84;63.56;102372.13;5059316;27;45482;-84
2022/03/24 01:52:28;;;;;;;;;45.00;35.67;;;;;11.78;64.23;102361.72;5059191;28;45376;-84
2022/03/24 01:54:56;;;;;;;;;45.00;35.67;;;;;11.71;63.99;102373.59;5060049;28;44797;-83
2022/03/24 01:57:24;;;;;;;;;47.67;40.00;;;;;11.67;60.78;102364.88;5060788;28;44813;-83
2022/03/24 01:59:49;;;;;;;;;48.67;36.67;;;;;11.67;63.66;102361.34;5063761;28;44881;-82
2022/03/24 02:02:16;;;;;;;;;47.67;38.33;;;;;11.62;64.58;102358.91;5048477;28;47023;-83
2022/03/24 02:04:43;;;;;;;;;45.67;38.33;;;;;11.57;66.79;102364.44;5042584;28;45426;-83
2022/03/24 02:07:13;;;;;;;;;39.33;32.00;;;;;11.53;63.03;102364.63;5039762;28;44774;-81
2022/03/24 02:09:39;;;;;;;;;44.33;36.67;;;;;11.55;63.15;102360.97;5042118;28;44849;-84
2022/03/24 02:12:08;;;;;;;;;48.00;39.67;;;;;11.58;61.81;102359.97;5044015;28;46228;-82
2022/03/24 02:14:34;;;;;;;;;49.00;39.33;;;;;11.59;63.82;102359.88;5041823;28;45282;-84
2022/03/24 02:17:00;;;;;;;;;45.00;38.33;;;;;11.57;63.90;102356.44;5040402;28;44875;-82
2022/03/24 02:19:27;;;;;;;;;45.67;35.00;;;;;11.52;66.19;102349.59;5040599;28;45565;-82
2022/03/24 02:21:54;;;;;;;;;45.67;36.00;;;;;11.44;67.34;102357.91;5038786;28;46970;-81
2022/03/24 02:24:25;;;;;;;;;46.33;37.67;;;;;11.39;65.47;102359.06;5038629;28;44755;-83
2022/03/24 02:26:51;;;;;;;;;47.67;37.00;;;;;11.35;67.61;102354.81;5045466;28;44687;-82
2022/03/24 02:29:18;;;;;;;;;45.00;33.00;;;;;11.30;68.03;102360.31;5043335;28;45377;-83
2022/03/24 02:31:49;;;;;;;;;42.00;36.33;;;;;11.25;69.68;102354.34;5038247;28;45183;-83
2022/03/24 02:37:06;;;;;;;;;45.33;36.33;;;;;11.16;70.27;102352.94;5058585;28;45373;-80
2022/03/24 02:39:32;;;;;;;;;43.00;34.67;;;;;11.14;72.41;102348.63;5058275;28;44857;-82
2022/03/24 02:41:59;;;;;;;;;44.33;36.00;;;;;11.07;72.87;102346.25;5058830;28;45315;-83
2022/03/24 02:44:27;;;;;;;;;41.67;36.00;;;;;11.00;73.58;102351.88;5061310;28;45206;-83
2022/03/24 02:46:54;;;;;;;;;50.67;41.00;;;;;10.96;74.10;102353.81;5062423;28;44934;-82
2022/03/24 02:49:26;;;;;;;;;46.00;36.00;;;;;10.94;74.88;102346.84;5060642;28;45575;-83
2022/03/24 02:51:58;;;;;;;;;48.33;38.67;;;;;10.91;73.84;102350.47;5060016;28;45075;-83
2022/03/24 02:54:23;;;;;;;;;44.33;37.00;;;;;10.89;74.30;102352.34;5069693;28;44768;-82
2022/03/24 02:56:49;;;;;;;;;45.33;34.67;;;;;10.86;75.00;102357.78;5058708;28;45352;-84
2022/03/24 02:59:15;;;;;;;;;41.33;35.33;;;;;10.83;76.28;102355.28;5060740;28;45237;-83
2022/03/24 03:01:53;;;;;;;;;49.00;39.33;;;;;10.82;78.49;102353.53;5063128;28;45347;-83
2022/03/24 03:04:18;;;;;;;;;42.00;35.33;;;;;10.81;77.84;102351.81;5040265;28;44808;-83
2022/03/24 03:06:45;;;;;;;;;50.33;37.00;;;;;10.82;76.19;102358.84;5041796;28;45580;-82
2022/03/24 03:09:14;;;;;;;;;49.33;38.67;;;;;10.79;76.30;102359.00;5043911;28;45371;-82
2022/03/24 03:11:43;;;;;;;;;43.00;36.00;;;;;10.71;77.01;102356.63;5043759;28;45480;-81
2022/03/24 03:14:08;;;;;;;;;44.33;37.33;;;;;10.66;77.79;102355.97;5043941;28;44822;-83
2022/03/24 03:16:34;;;;;;;;;45.67;37.00;;;;;10.58;78.51;102357.19;5059852;28;45116;-84
2022/03/24 03:18:59;;;;;;;;;48.33;38.00;;;;;10.49;79.45;102350.47;5059417;28;45423;-83
2022/03/24 03:21:25;;;;;;;;;50.33;37.33;;;;;10.42;80.92;102347.19;5058927;28;45373;-83
2022/03/24 03:23:50;;;;;;;;;44.67;35.33;;;;;10.35;81.80;102353.69;5037836;28;45475;-83
2022/03/24 03:26:17;;;;;;;;;46.67;37.33;;;;;10.27;83.02;102359.31;5038465;28;44932;-83
2022/03/24 03:28:43;;;;;;;;;47.33;35.67;;;;;10.20;83.98;102354.25;5040041;28;44828;-84
2022/03/24 03:31:09;;;;;;;;;47.00;36.00;;;;;10.14;84.82;102354.50;5041028;28;45319;-83
2022/03/24 03:33:36;;;;;;;;;47.00;37.00;;;;;10.08;86.11;102352.94;5045615;28;44839;-81
2022/03/24 03:36:03;;;;;;;;;51.00;40.67;;;;;10.02;87.05;102353.19;5059740;28;45221;-83
2022/03/24 03:38:29;;;;;;;;;46.00;36.00;;;;;9.95;88.34;102349.91;5059333;28;44825;-83
2022/03/24 03:40:55;;;;;;;;;51.33;41.00;;;;;9.88;88.29;102351.06;5055968;28;45364;-83
2022/03/24 03:43:21;;;;;;;;;50.33;38.67;;;;;9.84;89.59;102359.22;5058560;27;44943;-83
2022/03/24 03:45:47;;;;;;;;;47.00;39.00;;;;;9.76;89.80;102351.53;5059046;28;44855;-82
2022/03/24 03:48:12;;;;;;;;;55.00;36.67;;;;;9.70;90.83;102355.28;5064592;28;44814;-83
2022/03/24 03:50:41;;;;;;;;;50.33;37.67;;;;;9.66;92.18;102360.75;5057279;28;44956;-83
2022/03/24 03:53:08;;;;;;;;;48.33;39.33;;;;;9.62;91.87;102353.81;5055993;28;44806;-83
2022/03/24 03:55:35;;;;;;;;;40.00;34.33;;;;;9.61;92.63;102352.97;5056493;28;44823;-83
2022/03/24 03:58:01;;;;;;;;;57.00;42.33;;;;;9.59;93.30;102346.84;5056772;28;44828;-84
2022/03/24 04:03:10;;;;;;;;;46.33;37.33;;;;;9.51;93.45;102346.25;5053348;28;44796;-82
2022/03/24 04:05:36;;;;;;;;;43.67;35.67;;;;;9.46;93.86;102345.56;5036909;28;45967;-83
2022/03/24 04:08:01;;;;;;;;;46.33;40.00;;;;;9.42;94.15;102343.94;5038068;28;44855;-82
2022/03/24 04:10:27;;;;;;;;;48.67;38.00;;;;;9.37;94.66;102345.91;5020662;28;45427;-82
2022/03/24 04:12:57;;;;;;;;;53.00;38.00;;;;;9.34;96.42;102349.53;5040030;28;45281;-83
2022/03/24 04:15:23;;;;;;;;;49.67;40.67;;;;;9.29;96.72;102348.84;5044158;28;44655;-83
2022/03/24 04:17:50;;;;;;;;;43.00;36.67;;;;;9.25;96.93;102340.13;5041719;28;44781;-82
2022/03/24 04:20:20;;;;;;;;;47.00;38.67;;;;;9.22;97.53;102340.22;5037736;28;45677;-82
2022/03/24 04:22:59;;;;;;;;;50.33;39.00;;;;;9.20;98.70;102346.50;5036492;28;45464;-82
2022/03/24 04:25:24;;;;;;;;;49.67;38.00;;;;;9.16;98.81;102342.22;5034730;28;44706;-83
2022/03/24 04:27:50;;;;;;;;;53.00;40.00;;;;;9.13;99.87;102343.19;5036157;28;44838;-83
2022/03/24 04:30:17;;;;;;;;;53.00;40.00;;;;;9.15;100.00;102346.66;5037357;28;45156;-83
2022/03/24 04:32:44;;;;;;;;;52.67;41.00;;;;;9.13;100.00;102343.19;5037621;28;45393;-84
2022/03/24 04:35:10;;;;;;;;;47.00;40.67;;;;;9.12;100.00;102344.13;5058156;28;45312;-82
2022/03/24 04:37:36;;;;;;;;;53.00;40.67;;;;;9.11;100.00;102345.03;5097089;27;44971;-82
2022/03/24 04:40:03;;;;;;;;;51.00;41.33;;;;;9.10;100.00;102345.09;5059326;28;45074;-82
2022/03/24 04:42:29;;;;;;;;;53.00;41.00;;;;;9.07;100.00;102343.41;5058225;28;45484;-84
2022/03/24 04:44:55;;;;;;;;;47.33;39.00;;;;;9.05;100.00;102345.25;5061057;28;45434;-83
2022/03/24 04:47:21;;;;;;;;;52.00;39.00;;;;;9.03;100.00;102344.44;5058754;28;45539;-82
2022/03/24 04:49:46;;;;;;;;;45.33;39.33;;;;;9.00;100.00;102336.59;5059264;28;45426;-82
2022/03/24 04:52:12;;;;;;;;;42.67;37.00;;;;;8.97;100.00;102348.16;5057471;28;45407;-83
2022/03/24 04:54:37;;;;;;;;;48.33;38.67;;;;;8.94;100.00;102344.75;5056770;28;45322;-82
2022/03/24 04:57:03;;;;;;;;;55.33;41.67;;;;;8.92;100.00;102343.94;5056986;28;44809;-83
2022/03/24 04:59:28;;;;;;;;;54.00;41.33;;;;;8.88;100.00;102335.22;5056625;28;45181;-84
2022/03/24 05:01:55;;;;;;;;;49.67;40.33;;;;;8.86;100.00;102344.16;5089804;27;44715;-84
2022/03/24 05:04:22;;;;;;;;;54.00;41.67;;;;;8.82;100.00;102338.09;5059923;28;44785;-83
2022/03/24 05:06:47;;;;;;;;;50.33;40.00;;;;;8.80;100.00;102342.59;5058338;28;45258;-84
2022/03/24 05:09:13;;;;;;;;;53.00;41.67;;;;;8.76;100.00;102333.00;5058276;28;45145;-84
2022/03/24 05:11:38;;;;;;;;;53.33;43.00;;;;;8.74;100.00;102340.13;5068423;28;44795;-83
2022/03/24 05:14:04;;;;;;;;;50.33;38.00;;;;;8.72;100.00;102341.97;5063652;28;44839;-83
2022/03/24 05:16:30;;;;;;;;;48.00;39.00;;;;;8.70;100.00;102343.78;5066407;28;44839;-82
2022/03/24 05:18:56;;;;;;;;;54.33;42.33;;;;;8.69;100.00;102339.41;5069357;28;46352;-83
2022/03/24 05:21:21;;;;;;;;;47.00;36.33;;;;;8.69;100.00;102339.41;5061328;28;45299;-83
2022/03/24 05:23:47;;;;;;;;;48.00;39.00;;;;;8.70;100.00;102338.50;5061671;28;44910;-81
2022/03/24 05:26:12;;;;;;;;;57.33;39.00;;;;;8.70;100.00;102344.69;5058312;28;45383;-83
2022/03/24 05:28:38;;;;;;;;;43.00;35.67;;;;;8.72;100.00;102347.28;5056016;28;45375;-83
2022/03/24 05:31:04;;;;;;;;;52.00;41.67;;;;;8.73;100.00;102351.66;5056770;28;44776;-81
2022/03/24 05:33:29;;;;;;;;;46.67;36.33;;;;;8.74;100.00;102348.94;5056705;28;45426;-84
2022/03/24 05:35:55;;;;;;;;;51.67;39.00;;;;;8.73;100.00;102352.50;5055837;28;45501;-83
2022/03/24 05:38:20;;;;;;;;;50.33;41.00;;;;;8.73;100.00;102346.34;5059325;28;45062;-83
2022/03/24 05:40:47;;;;;;;;;52.00;42.00;;;;;8.73;100.00;102351.66;5062688;28;45400;-84
2022/03/24 05:43:12;;;;;;;;;48.67;36.67;;;;;8.78;100.00;102352.34;5066022;28;44739;-83
2022/03/24 05:45:38;;;;;;;;;53.33;36.33;;;;;8.83;100.00;102354.84;5062515;28;45635;-84
2022/03/24 05:48:04;;;;;;;;;51.00;37.33;;;;;8.86;100.00;102345.03;5061282;28;45501;-86
2022/03/24 05:50:29;;;;;;;;;60.00;43.67;;;;;8.88;100.00;102348.47;5060998;28;44699;-83
2022/03/24 05:52:55;;;;;;;;;49.00;40.33;;;;;8.90;100.00;102349.31;5059996;28;45457;-85
2022/03/24 05:55:23;;;;;;;;;47.67;38.67;;;;;8.90;100.00;102354.59;5059602;28;44860;-85
2022/03/24 05:57:49;;;;;;;;;48.33;41.00;;;;;8.93;100.00;102350.97;5061334;28;45543;-84
2022/03/24 06:00:14;;;;;;;;;55.33;42.67;;;;;8.94;100.00;102353.56;5063394;28;44824;-82
2022/03/24 06:02:41;;;;;;;;;48.00;38.00;;;;;8.98;100.00;102363.16;5061085;28;44828;-84
2022/03/24 06:05:11;;;;;;;;;40.67;37.00;;;;;9.06;100.00;102362.91;5062655;28;44902;-83
2022/03/24 06:07:37;;;;;;;;;49.67;37.33;;;;;9.14;100.00;102358.19;5063612;28;45403;-85
2022/03/24 06:10:03;;;;;;;;;50.33;38.67;;;;;9.25;100.00;102363.13;5062549;28;44934;-84
2022/03/24 06:12:28;;;;;;;;;53.00;40.33;;;;;9.38;100.00;102366.19;5067842;28;45377;-86
2022/03/24 06:14:54;;;;;;;;;51.00;38.33;;;;;9.50;100.00;102363.97;5073802;28;44851;-82
2022/03/24 06:17:20;;;;;;;;;48.67;40.00;;;;;9.63;99.99;102355.56;5062400;28;45376;-84
2022/03/24 06:19:47;;;;;;;;;48.33;40.67;;;;;9.76;99.24;102356.81;5063572;28;44827;-84
2022/03/24 06:22:13;;;;;;;;;48.00;40.00;;;;;9.90;99.71;102364.28;5062793;28;45412;-84
2022/03/24 06:24:39;;;;;;;;;56.00;42.67;;;;;10.01;100.00;102367.41;5062165;28;44779;-85
2022/03/24 06:27:05;;;;;;;;;59.33;43.33;;;;;10.15;99.92;102361.53;5061177;28;45352;-85
2022/03/24 06:29:31;;;;;;;;;60.00;43.67;;;;;10.27;96.33;102356.66;5058857;28;44892;-84
2022/03/24 06:32:00;;;;;;;;;49.00;39.67;;;;;10.43;96.59;102362.22;5059379;28;44732;-84
2022/03/24 06:34:25;;;;;;;;;55.67;42.67;;;;;10.58;96.80;102360.72;5058060;28;45550;-84
2022/03/24 06:36:51;;;;;;;;;47.67;39.33;;;;;10.70;93.84;102364.69;5041150;28;46103;-83
2022/03/24 06:39:17;;;;;;;;;45.00;35.33;;;;;10.84;93.81;102366.78;5038969;28;44853;-83
2022/03/24 06:41:43;;;;;;;;;48.67;38.00;;;;;10.96;92.39;102366.25;5040378;28;44932;-84
2022/03/24 06:44:09;;;;;;;;;47.67;38.00;;;;;11.07;92.16;102364.88;5045624;28;45455;-84
2022/03/24 06:46:35;;;;;;;;;54.33;42.00;;;;;11.18;92.03;102367.06;5045508;28;45428;-83
2022/03/24 06:49:01;;;;;;;;;49.00;39.67;;;;;11.29;91.25;102369.25;5036212;28;45491;-83
2022/03/24 06:51:26;;;;;;;;;50.00;42.00;;;;;11.38;90.32;102374.16;5037625;28;45490;-84
2022/03/24 06:53:52;;;;;;;;;50.33;39.67;;;;;11.46;89.55;102371.16;5038735;28;44971;-83
2022/03/24 06:56:18;;;;;;;;;54.33;42.33;;;;;11.56;91.00;102372.50;5040370;28;47104;-84
2022/03/24 06:58:43;;;;;;;;;46.00;37.33;;;;;11.63;90.84;102365.09;5043669;28;44830;-84
2022/03/24 07:01:10;;;;;;;;;50.33;39.33;;;;;11.69;91.34;102367.47;5042891;28;45446;-85
2022/03/24 07:03:37;;;;;;;;;53.33;42.33;;;;;11.76;90.09;102380.44;5039992;28;45359;-84
2022/03/24 07:06:02;;;;;;;;;48.67;40.33;;;;;11.86;89.73;102378.25;5039142;28;45353;-85
2022/03/24 07:08:28;;;;;;;;;46.00;36.00;;;;;11.96;89.27;102386.69;5041524;28;44791;-85
2022/03/24 07:10:53;;;;;;;;;53.00;40.00;;;;;12.04;88.76;102390.72;5038990;28;45314;-85
2022/03/24 07:13:19;;;;;;;;;50.33;42.33;;;;;12.13;89.79;102388.53;5040675;28;45379;-84
2022/03/24 07:15:45;;;;;;;;;54.67;40.00;;;;;12.21;88.06;102381.06;5042527;28;45034;-83
2022/03/24 07:18:10;;;;;;;;;56.00;39.67;;;;;12.29;88.52;102378.91;5043534;28;45396;-83
2022/03/24 07:20:36;;;;;;;;;50.00;41.00;;;;;12.40;88.45;102379.25;5040023;28;45383;-85
2022/03/24 07:23:08;;;;;;;;;50.00;40.33;;;;;12.44;85.67;102383.50;5039734;28;45542;-84
2022/03/24 07:25:36;;;;;;;;;48.67;38.67;;;;;12.43;81.64;102386.25;5037480;28;47082;-84
2022/03/24 07:28:02;;;;;;;;;46.00;39.00;;;;;12.45;80.32;102390.56;5037131;28;45367;-84
2022/03/24 07:30:28;;;;;;;;;41.33;35.33;;;;;12.50;80.75;102390.31;5037361;28;45440;-83
2022/03/24 07:32:59;;;;;;;;;44.33;34.67;;;;;12.55;79.70;102393.63;5037238;28;44813;-86
2022/03/24 07:35:25;;;;;;;;;46.33;38.67;;;;;12.61;79.36;102398.66;5036863;28;45426;-84
2022/03/24 07:37:51;;;;;;;;;42.67;32.67;;;;;12.72;77.31;102401.69;5059502;28;45372;-85
2022/03/24 07:40:18;;;;;;;;;45.00;36.67;;;;;12.74;77.46;102397.13;5090842;27;45466;-84
2022/03/24 07:42:46;;;;;;;;;47.67;38.00;;;;;12.86;77.86;102396.53;5058358;28;45284;-84
2022/03/24 07:45:12;;;;;;;;;50.00;40.00;;;;;12.94;76.86;102403.28;5060742;28;45338;-85
2022/03/24 07:48:09;;;;;;;;;46.67;38.33;;;;;13.07;76.60;102391.91;5063428;28;44694;-84
2022/03/24 07:50:38;;;;;;;;;53.67;39.00;;;;;13.21;75.29;102399.22;5047289;28;45482;-86
2022/03/24 07:53:39;;;;;;;;;35.67;33.00;;;;;13.20;72.79;102404.59;5063535;28;44926;-85
2022/03/24 07:56:04;;;;;;;;;37.00;32.33;;;;;13.33;73.52;102409.28;5063349;28;44959;-85
2022/03/24 07:58:31;;;;;;;;;42.67;35.67;;;;;13.45;74.22;102409.59;5071351;28;45560;-87
2022/03/24 08:00:59;;;;;;;;;48.00;37.67;;;;;13.58;73.53;102416.00;5061988;28;45500;-87
2022/03/24 08:03:26;;;;;;;;;42.33;32.67;;;;;13.66;72.21;102411.13;5066923;28;45277;-87
2022/03/24 08:05:52;;;;;;;;;44.33;34.33;;;;;13.73;70.73;102414.31;5061516;28;46180;-87
2022/03/24 08:08:19;;;;;;;;;44.67;35.33;;;;;13.70;70.32;102415.38;5060633;28;45523;-88
2022/03/24 08:10:47;;;;;;;;;47.00;37.33;;;;;13.77;69.55;102410.53;5057713;28;44780;-87
2022/03/24 08:13:15;;;;;;;;;53.67;41.33;;;;;13.76;69.94;102408.81;5052912;28;45499;-87
2022/03/24 08:15:41;;;;;;;;;49.00;38.00;;;;;13.88;70.96;102411.72;5047012;28;45066;-87
2022/03/24 08:18:08;;;;;;;;;46.67;36.00;;;;;14.00;70.72;102415.50;5060905;28;45256;-87
2022/03/24 08:20:38;;;;;;;;;39.33;34.00;;;;;14.16;69.28;102420.88;5060557;28;44874;-88
2022/03/24 08:23:04;;;;;;;;;46.67;38.67;;;;;14.30;67.33;102414.78;5047248;28;45171;-87
2022/03/24 08:25:30;;;;;;;;;51.00;38.67;;;;;14.39;67.27;102422.28;5046107;28;45528;-87
2022/03/24 08:27:56;;;;;;;;;34.67;31.00;;;;;14.51;67.56;102413.63;5058905;28;44784;-87
2022/03/24 08:30:22;;;;;;;;;41.33;38.67;;;;;14.64;67.14;102414.63;5047136;28;44821;-87
2022/03/24 08:32:48;;;;;;;;;47.00;38.33;;;;;14.78;66.03;102429.03;5041179;28;45379;-86
2022/03/24 08:35:13;;;;;;;;;46.33;39.33;;;;;14.88;66.43;102423.03;5052437;28;45509;-87
2022/03/24 08:37:38;;;;;;;;;45.33;41.00;;;;;15.00;65.88;102425.97;5046588;28;44851;-86
2022/03/24 08:40:05;;;;;;;;;39.33;36.67;;;;;15.06;65.88;102428.28;5055512;28;45281;-86
2022/03/24 08:42:30;;;;;;;;;49.67;40.33;;;;;15.12;64.21;102427.91;5059714;28;44921;-87
2022/03/24 08:44:56;;;;;;;;;48.00;40.00;;;;;15.24;64.03;102421.00;5062097;28;45327;-88
2022/03/24 08:47:21;;;;;;;;;34.33;32.33;;;;;15.31;63.57;102423.19;5062188;28;45270;-86
2022/03/24 08:49:47;;;;;;;;;47.00;36.00;;;;;15.41;62.17;102428.84;5064793;28;45322;-86
2022/03/24 08:52:13;;;;;;;;;53.00;38.67;;;;;15.54;61.83;102429.84;5069509;28;44899;-87
2022/03/24 08:54:38;;;;;;;;;43.33;35.33;;;;;15.64;61.88;102430.19;5054765;28;45131;-88
2022/03/24 08:57:04;;;;;;;;;47.67;39.67;;;;;15.73;60.95;102434.97;5060819;28;44760;-88
2022/03/24 08:59:30;;;;;;;;;44.33;40.00;;;;;15.81;61.13;102429.13;5060295;28;44765;-88
2022/03/24 09:01:57;;;;;;;;;48.67;40.33;;;;;15.90;61.61;102423.19;5043455;28;44734;-88
2022/03/24 09:04:26;;;;;;;;;60.00;43.00;;;;;15.97;60.47;102427.25;5061858;28;47616;-87
2022/03/24 09:06:54;;;;;;;;;56.33;44.00;;;;;16.04;59.33;102436.59;5059160;28;44701;-87
2022/03/24 09:09:22;;;;;;;;;40.00;36.67;;;;;15.90;57.86;102440.13;5051468;28;45293;-88
2022/03/24 09:11:49;;;;;;;;;52.00;40.67;;;;;15.91;59.73;102439.22;5052177;28;44980;-89
2022/03/24 09:14:16;;;;;;;;;51.33;37.67;;;;;16.01;59.71;102434.13;5050292;28;46602;-88
2022/03/24 09:16:42;;;;;;;;;46.00;31.33;;;;;16.13;59.87;102440.53;5070685;28;44863;-88
2022/03/24 09:19:07;;;;;;;;;48.00;35.33;;;;;16.27;58.65;102437.84;5074115;28;45288;-86
2022/03/24 09:21:33;;;;;;;;;55.33;41.00;;;;;16.39;58.31;102445.13;5062870;28;44942;-88
2022/03/24 09:23:58;;;;;;;;;51.00;41.33;;;;;16.50;57.52;102443.56;5071118;28;45204;-88
2022/03/24 09:26:24;;;;;;;;;46.00;36.67;;;;;16.59;57.25;102441.13;5073609;28;44986;-86
2022/03/24 09:28:52;;;;;;;;;50.33;40.67;;;;;16.65;56.91;102445.25;5059974;28;45249;-87
2022/03/24 09:31:19;;;;;;;;;50.33;40.00;;;;;16.74;56.22;102441.13;5055963;28;45610;-90
2022/03/24 09:33:44;;;;;;;;;53.00;41.00;;;;;16.78;54.79;102440.84;5055113;28;45129;-87
2022/03/24 09:36:09;;;;;;;;;44.00;36.67;;;;;16.79;54.83;102441.69;5063241;28;44722;-89
2022/03/24 09:38:36;;;;;;;;;46.00;34.33;;;;;16.88;55.20;102441.94;5073233;28;45286;-88
2022/03/24 09:41:02;;;;;;;;;50.33;39.33;;;;;16.99;55.54;102448.41;5069901;28;45421;-88
2022/03/24 09:43:30;;;;;;;;;52.00;38.67;;;;;17.05;54.26;102442.63;5051444;28;46550;-89
2022/03/24 09:45:56;;;;;;;;;51.67;42.33;;;;;17.09;52.71;102442.31;5051626;28;44755;-88
2022/03/24 09:48:21;;;;;;;;;38.67;34.00;;;;;17.19;52.52;102442.56;5057219;28;44868;-88
2022/03/24 09:50:48;;;;;;;;;50.00;39.00;;;;;17.25;51.75;102439.44;5046811;28;45480;-89
2022/03/24 09:53:15;;;;;;;;;45.00;36.00;;;;;17.32;51.88;102427.34;5044444;28;45548;-89
2022/03/24 09:55:46;;;;;;;;;50.67;40.33;;;;;17.43;52.32;102432.81;5048272;28;44761;-89
2022/03/24 09:58:11;;;;;;;;;49.33;37.00;;;;;17.56;52.50;102424.78;5047068;28;44724;-89
2022/03/24 10:00:37;;;;;;;;;48.00;35.00;;;;;17.65;51.32;102429.53;5051449;28;44784;-89
2022/03/24 10:03:09;;;;;;;;;46.67;39.67;;;;;17.68;52.21;102431.13;5062875;28;45481;-89
2022/03/24 10:05:34;;;;;;;;;50.67;35.67;;;;;17.80;51.81;102424.06;5067846;28;45207;-90
2022/03/24 10:08:06;;;;;;;;;43.67;36.67;;;;;17.92;50.89;102426.72;5068666;28;44639;-89
2022/03/24 10:10:37;;;;;;;;;38.00;33.00;;;;;18.04;50.25;102424.16;5066332;28;45013;-89
2022/03/24 10:13:04;;;;;;;;;52.00;37.00;;;;;18.09;50.24;102422.84;5068332;28;46745;-88
2022/03/24 10:15:30;;;;;;;;;42.75;36.50;;;;;18.22;50.01;102420.13;5050664;28;44884;-89
2022/03/24 10:17:57;;;;;;;;;51.33;41.67;;;;;18.09;46.88;102422.00;5047500;28;45351;-90
2022/03/24 10:20:28;;;;;;;;;51.33;36.33;;;;;17.87;47.35;102425.34;5051912;28;45253;-88
2022/03/24 10:22:55;;;;;;;;;43.00;37.67;;;;;17.87;47.76;102422.66;5047301;28;45243;-88
2022/03/24 10:25:27;;;;;;;;;49.00;38.33;;;;;17.93;48.89;102415.00;5052109;28;44734;-89
2022/03/24 10:28:04;;;;;;;;;30.33;19.00;;;;;18.16;50.16;102412.50;5062544;28;45193;-89
2022/03/24 10:30:55;;;;;;;;;41.33;37.33;;;;;18.35;50.62;102417.41;5057559;28;44782;-87
2022/03/24 10:33:32;;;;;;;;;41.00;31.00;;;;;18.46;49.80;102412.94;5053556;28;45230;-88
2022/03/24 10:36:04;;;;;;;;;45.00;37.33;;;;;18.62;49.72;102410.00;5066618;28;45409;-88
2022/03/24 10:38:34;;;;;;;;;40.33;35.67;;;;;18.68;48.43;102409.56;5062848;28;44637;-88
2022/03/24 10:41:16;;;;;;;;;47.67;37.00;;;;;18.70;48.16;102406.75;5053204;28;45407;-89
2022/03/24 10:43:42;;;;;;;;;48.67;36.67;;;;;18.67;47.32;102409.66;5058956;28;47132;-88
2022/03/24 10:46:16;;;;;;;;;49.67;36.00;;;;;18.75;47.04;102405.44;5051006;28;44690;-87
2022/03/24 10:48:43;;;;;;;;;49.33;38.00;;;;;18.89;47.72;102407.09;5045705;28;44798;-84
2022/03/24 10:51:09;;;;;;;;;39.67;34.67;;;;;18.98;46.95;102402.84;5055432;28;44788;-88
2022/03/24 10:53:40;;;;;;;;;42.33;35.00;;;;;19.12;48.43;102407.19;5055691;28;45309;-89
2022/03/24 10:56:13;;;;;;;;;43.00;36.25;;;;;19.25;47.59;102403.44;5055377;28;44725;-88
2022/03/24 10:58:47;;;;;;;;;43.75;36.00;;;;;19.42;48.56;102410.19;5052802;28;45644;-90
2022/03/24 11:01:17;;;;;;;;;46.33;37.33;;;;;19.55;48.11;102404.72;5063909;28;45254;-89
2022/03/24 11:03:44;;;;;;;;;47.50;38.25;;;;;19.69;45.37;102409.91;5057118;28;45055;-89
2022/03/24 11:06:17;;;;;;;;;43.75;33.50;;;;;19.76;45.65;102411.13;5062973;28;45428;-88
2022/03/24 11:08:47;;;;;;;;;49.00;39.33;;;;;19.91;45.82;102397.41;5061671;28;44743;-92
2022/03/24 11:11:16;;;;;;;;;46.33;34.33;;;;;19.93;45.98;102403.56;5053880;28;44896;-91
2022/03/24 11:13:51;;;;;;;;;37.00;32.00;;;;;19.90;44.47;102398.41;5052541;28;46932;-91